Adelphi, Ohio
Current Conditions -  °F | °C
As of 9:34 PM on Tuesday 21 Oct 2014 (Local Time) from KRZT Reporting Station
Overcast Overcast  
Wind Chill: 40°   Ceiling: 3600
Heat Index: 45°   Visibility: 10mi
Dew Point: 39°   Wind: 8mph
Humidity: 81%   Direction: 350°N
Pressure: 30.15"   Gusts: NA
Location:  39.47°N, 82.75°W
Report Text: KRZT 220134Z AUTO 35007KT 10SM OVC036 07/04 A3015 RMK AO2
Loading
Personal Weather Stations






























Interactive Weather Map
Tropical Storm Tracking
New forecast layout! Learn more

10-Day Weather Forecast

Advertisements
Track Severe Weather on mobile